Time;durP1;ratioP1;P1;durP2;ratioP2;P2;SDS_P1;SDS_P2;PMS_P1;PMS_P2;Temp;Humidity;BMP_temperature;BMP_pressure;BME280_temperature;BME280_humidity;BME280_pressure;Samples;Min_cycle;Max_cycle;Signal;HPM_P1;HPM_P2
2023/05/11 00:00:52;;;;;;;;;;;;;;;12.33;55.40;100053.47;5031854;28;20348;-77
2023/05/11 00:03:17;;;;;;;;;;;;;;;12.31;55.87;100054.66;5031516;28;20003;-77
2023/05/11 00:05:46;;;;;;;;;;;;;;;12.30;55.15;100059.13;5031641;28;19963;-78
2023/05/11 00:08:11;;;;;;;;;;;;;;;12.26;54.98;100054.38;5031573;28;20389;-77
2023/05/11 00:10:36;;;;;;;;;;;;;;;12.26;53.95;100054.38;5031463;28;19909;-77
2023/05/11 00:13:02;;;;;;;;;;;;;;;12.22;53.98;100051.25;5032592;28;20067;-77
2023/05/11 00:15:27;;;;;;;;;;;;;;;12.20;54.01;100049.78;5035099;28;19960;-78
2023/05/11 00:17:52;;;;;;;;;;;;;;;12.15;54.27;100055.59;5050635;28;19909;-76
2023/05/11 00:20:20;;;;;;;;;;;;;;;12.11;54.50;100059.59;5035337;28;20429;-77
2023/05/11 00:22:45;;;;;;;;;;;;;;;12.06;54.61;100057.47;5050584;28;19909;-77
2023/05/11 00:25:10;;;;;;;;;;;;;;;12.05;54.25;100062.94;5035248;28;19920;-76
2023/05/11 00:27:35;;;;;;;;;;;;;;;11.95;54.78;100060.53;5035073;28;19929;-76
2023/05/11 00:30:01;;;;;;;;;;;;;;;11.88;54.29;100069.28;5035231;28;19909;-76
2023/05/11 00:32:26;;;;;;;;;;;;;;;11.74;54.31;100068.19;5034957;28;19909;-77
2023/05/11 00:34:51;;;;;;;;;;;;;;;11.65;54.41;100062.09;5034913;28;19913;-77
2023/05/11 00:37:16;;;;;;;;;;;;;;;11.57;54.54;100067.44;5050407;28;20294;-77
2023/05/11 00:39:42;;;;;;;;;;;;;;;11.39;54.85;100069.47;5034974;28;19909;-76
2023/05/11 00:42:07;;;;;;;;;;;;;;;11.27;55.20;100074.31;5034821;28;19948;-77
2023/05/11 00:44:32;;;;;;;;;;;;;;;11.27;54.95;100066.38;5034849;28;19916;-77
2023/05/11 00:46:58;;;;;;;;;;;;;;;11.20;54.64;100077.78;5034866;28;19916;-76
2023/05/11 00:49:23;;;;;;;;;;;;;;;11.06;55.73;100068.72;5035075;28;19908;-76
2023/05/11 00:51:48;;;;;;;;;;;;;;;11.03;55.98;100079.63;5050059;28;20397;-76
2023/05/11 00:54:14;;;;;;;;;;;;;;;11.00;55.21;100072.03;5050170;28;19913;-76
2023/05/11 00:56:40;;;;;;;;;;;;;;;11.02;54.63;100081.44;5035165;28;20055;-76
2023/05/11 00:59:06;;;;;;;;;;;;;;;10.99;55.52;100089.69;5050342;28;19909;-76
2023/05/11 01:01:32;;;;;;;;;;;;;;;10.96;55.28;100091.84;5034758;28;19909;-77
2023/05/11 01:03:57;;;;;;;;;;;;;;;10.92;55.80;100082.59;5049959;28;19916;-76
2023/05/11 01:06:43;;;;;;;;;;;;;;;10.92;55.74;100072.03;5034450;28;19912;-77
2023/05/11 01:09:14;;;;;;;;;;;;;;;10.91;55.54;100079.13;5034665;28;19928;-77
2023/05/11 01:12:03;;;;;;;;;;;;;;;10.91;55.58;100073.84;5034377;28;19949;-77
2023/05/11 01:14:40;;;;;;;;;;;;;;;10.89;55.47;100069.72;5028494;28;19969;-77
2023/05/11 01:17:09;;;;;;;;;;;;;;;10.83;56.13;100073.88;5034397;28;19909;-77
2023/05/11 01:19:37;;;;;;;;;;;;;;;10.82;55.76;100072.22;5035053;28;19915;-76
2023/05/11 01:22:06;;;;;;;;;;;;;;;10.86;56.33;100078.00;5034510;28;19909;-76
2023/05/11 01:24:50;;;;;;;;;;;;;;;10.85;55.37;100082.44;5033727;28;19909;-77
2023/05/11 01:27:36;;;;;;;;;;;;;;;10.80;55.88;100080.31;5034060;28;20402;-76
2023/05/11 01:30:13;;;;;;;;;;;;;;;10.82;55.07;100080.13;5039529;28;20412;-75
2023/05/11 01:32:39;;;;;;;;;;;;;;;10.72;56.03;100075.03;5034197;28;19909;-77
2023/05/11 01:35:07;;;;;;;;;;;;;;;10.63;56.29;100075.19;5033921;28;19912;-77
2023/05/11 01:37:34;;;;;;;;;;;;;;;10.60;56.04;100073.72;5034018;28;19909;-77
2023/05/11 01:40:06;;;;;;;;;;;;;;;10.57;56.96;100075.84;5034084;28;19909;-77
2023/05/11 01:42:35;;;;;;;;;;;;;;;10.54;56.74;100084.09;5033917;28;19931;-77
2023/05/11 01:45:02;;;;;;;;;;;;;;;10.55;56.89;100081.31;5033742;28;19971;-77
2023/05/11 01:47:29;;;;;;;;;;;;;;;10.57;56.34;100078.50;5033574;28;19909;-77
2023/05/11 01:49:55;;;;;;;;;;;;;;;10.53;56.77;100074.53;5033598;28;20378;-76
2023/05/11 01:52:23;;;;;;;;;;;;;;;10.53;55.58;100077.19;5033606;28;19959;-77
2023/05/11 01:54:51;;;;;;;;;;;;;;;10.47;56.38;100076.03;5033508;28;19920;-77
2023/05/11 01:57:16;;;;;;;;;;;;;;;10.47;56.59;100073.38;5033377;28;19909;-75
2023/05/11 01:59:42;;;;;;;;;;;;;;;10.42;56.78;100070.41;5033640;28;19909;-77
2023/05/11 02:02:08;;;;;;;;;;;;;;;10.45;56.84;100064.81;5033216;28;19909;-77
2023/05/11 02:04:36;;;;;;;;;;;;;;;10.46;57.38;100066.44;5033543;28;20351;-75
2023/05/11 02:07:01;;;;;;;;;;;;;;;10.44;56.62;100063.16;5033525;28;19913;-77
2023/05/11 02:09:28;;;;;;;;;;;;;;;10.49;56.32;100077.50;5033711;28;19916;-76
2023/05/11 02:11:55;;;;;;;;;;;;;;;10.48;56.19;100067.13;5033490;28;19932;-75
2023/05/11 02:14:22;;;;;;;;;;;;;;;10.49;56.34;100068.75;5033202;28;19980;-76
2023/05/11 02:16:48;;;;;;;;;;;;;;;10.48;56.42;100069.75;5048695;28;19931;-76
2023/05/11 02:19:14;;;;;;;;;;;;;;;10.50;56.81;100062.50;5048808;28;19909;-76
2023/05/11 02:21:42;;;;;;;;;;;;;;;10.43;56.50;100064.13;5033542;28;20396;-76
2023/05/11 02:24:07;;;;;;;;;;;;;;;10.39;57.32;100062.78;5033065;28;19967;-76
2023/05/11 02:26:32;;;;;;;;;;;;;;;10.39;57.11;100060.97;5033196;28;19913;-76
2023/05/11 02:28:58;;;;;;;;;;;;;;;10.45;56.99;100064.81;5033268;28;19917;-77
2023/05/11 02:31:26;;;;;;;;;;;;;;;10.49;56.88;100059.03;5032941;28;19909;-77
2023/05/11 02:33:53;;;;;;;;;;;;;;;10.49;56.90;100066.13;5032863;28;19908;-77
2023/05/11 02:36:20;;;;;;;;;;;;;;;10.49;57.93;100066.94;5031817;28;19931;-77
2023/05/11 02:38:46;;;;;;;;;;;;;;;10.54;57.48;100065.63;5032530;28;19931;-77
2023/05/11 02:41:15;;;;;;;;;;;;;;;10.66;56.73;100069.59;5032644;28;20366;-77
2023/05/11 02:43:44;;;;;;;;;;;;;;;10.76;56.15;100057.03;5032713;28;20091;-77
2023/05/11 02:46:12;;;;;;;;;;;;;;;10.78;55.58;100063.81;5032631;28;19992;-77
2023/05/11 02:48:40;;;;;;;;;;;;;;;10.76;57.21;100060.50;5032604;28;19916;-77
2023/05/11 02:51:07;;;;;;;;;;;;;;;10.86;56.03;100067.41;5032574;28;19913;-77
2023/05/11 02:53:33;;;;;;;;;;;;;;;10.85;57.52;100065.78;5032560;28;19916;-77
2023/05/11 02:55:59;;;;;;;;;;;;;;;10.86;56.93;100072.72;5032906;28;20023;-77
2023/05/11 02:58:24;;;;;;;;;;;;;;;10.93;56.29;100073.69;5032288;28;20047;-77
2023/05/11 03:00:50;;;;;;;;;;;;;;;10.98;56.66;100066.91;5032396;28;19958;-77
2023/05/11 03:03:15;;;;;;;;;;;;;;;11.00;56.68;100072.84;5032152;28;19967;-77
2023/05/11 03:05:40;;;;;;;;;;;;;;;11.05;56.52;100077.63;5047623;28;19913;-77
2023/05/11 03:08:06;;;;;;;;;;;;;;;11.09;56.27;100063.09;5047586;28;19909;-77
2023/05/11 03:10:32;;;;;;;;;;;;;;;11.17;56.91;100072.84;5032313;28;19941;-77
2023/05/11 03:12:57;;;;;;;;;;;;;;;11.22;56.36;100065.25;5032291;28;19915;-77
2023/05/11 03:15:23;;;;;;;;;;;;;;;11.25;56.71;100068.38;5032225;28;19912;-77
2023/05/11 03:17:52;;;;;;;;;;;;;;;11.24;57.67;100076.47;5031944;28;19967;-78
2023/05/11 03:20:18;;;;;;;;;;;;;;;11.20;57.24;100073.34;5031867;28;20307;-77
2023/05/11 03:22:44;;;;;;;;;;;;;;;11.14;56.74;100072.16;5031899;28;19967;-77
2023/05/11 03:25:10;;;;;;;;;;;;;;;11.18;56.54;100077.97;5031888;28;19909;-77
2023/05/11 03:27:36;;;;;;;;;;;;;;;11.17;57.32;100080.78;5032200;28;20314;-76
2023/05/11 03:30:03;;;;;;;;;;;;;;;11.13;58.45;100082.91;5032092;28;19960;-76
2023/05/11 03:32:29;;;;;;;;;;;;;;;11.14;57.90;100092.47;5032013;28;19913;-77
2023/05/11 03:34:54;;;;;;;;;;;;;;;11.21;56.95;100082.09;5031914;28;20390;-77
2023/05/11 03:37:20;;;;;;;;;;;;;;;11.27;57.05;100076.94;5032143;28;19920;-76
2023/05/11 03:39:47;;;;;;;;;;;;;;;11.25;57.75;100083.41;5047190;28;19915;-77
2023/05/11 03:42:16;;;;;;;;;;;;;;;11.31;58.74;100082.72;5031809;28;19944;-76
2023/05/11 03:44:43;;;;;;;;;;;;;;;11.35;58.08;100091.97;5031683;28;19909;-76
2023/05/11 03:47:09;;;;;;;;;;;;;;;11.38;58.04;100088.97;5031475;28;20364;-76
2023/05/11 03:49:35;;;;;;;;;;;;;;;11.33;58.66;100089.50;5031530;28;19995;-77
2023/05/11 03:52:01;;;;;;;;;;;;;;;11.32;58.26;100095.78;5031788;28;19963;-76
2023/05/11 03:54:27;;;;;;;;;;;;;;;11.30;57.00;100096.94;5031639;28;19913;-77
2023/05/11 03:56:52;;;;;;;;;;;;;;;11.29;58.18;100096.13;5031671;28;19999;-76
2023/05/11 03:59:17;;;;;;;;;;;;;;;11.24;57.89;100098.44;5047035;28;20305;-77
2023/05/11 04:01:43;;;;;;;;;;;;;;;11.22;58.25;100097.78;5031711;28;19909;-76
2023/05/11 04:04:08;;;;;;;;;;;;;;;11.28;58.07;100088.34;5031708;28;19909;-76
2023/05/11 04:06:33;;;;;;;;;;;;;;;11.32;58.61;100095.78;5031730;28;19913;-76
2023/05/11 04:08:58;;;;;;;;;;;;;;;11.32;59.06;100087.84;5041060;28;19909;-77
2023/05/11 04:11:26;;;;;;;;;;;;;;;11.34;58.11;100101.72;5036999;28;19916;-77
2023/05/11 04:13:51;;;;;;;;;;;;;;;11.38;58.33;100094.28;5036642;28;19936;-77
2023/05/11 04:16:16;;;;;;;;;;;;;;;11.45;57.67;100098.72;5036358;28;20378;-77
2023/05/11 04:18:42;;;;;;;;;;;;;;;11.53;57.16;100110.25;5050042;28;19919;-75
2023/05/11 04:21:07;;;;;;;;;;;;;;;11.53;59.74;100112.91;5043481;28;19959;-75
2023/05/11 04:23:32;;;;;;;;;;;;;;;11.49;59.42;100114.22;5031502;28;20395;-76
2023/05/11 04:25:57;;;;;;;;;;;;;;;11.51;58.55;100104.31;5031570;28;19909;-78
2023/05/11 04:28:26;;;;;;;;;;;;;;;11.59;57.38;100110.41;5031422;28;19955;-78
2023/05/11 04:30:55;;;;;;;;;;;;;;;11.61;57.91;100108.41;5031470;28;19909;-78
2023/05/11 04:33:20;;;;;;;;;;;;;;;11.65;57.66;100104.41;5038374;28;19944;-77
2023/05/11 04:35:46;;;;;;;;;;;;;;;11.68;58.81;100108.53;5050732;28;19975;-77
2023/05/11 04:38:11;;;;;;;;;;;;;;;11.71;58.50;100097.63;5051806;28;19908;-78
2023/05/11 04:40:36;;;;;;;;;;;;;;;11.73;58.44;100107.03;5050456;28;20313;-76
2023/05/11 04:43:02;;;;;;;;;;;;;;;11.80;58.01;100116.97;5051369;28;19915;-76
2023/05/11 04:45:27;;;;;;;;;;;;;;;11.82;57.57;100114.97;5051173;28;19959;-78
2023/05/11 04:47:53;;;;;;;;;;;;;;;11.78;58.89;100112.66;5051279;28;19909;-76
2023/05/11 04:50:18;;;;;;;;;;;;;;;11.82;58.71;100115.78;5051175;28;20432;-76
2023/05/11 04:52:43;;;;;;;;;;;;;;;11.87;58.28;100109.97;5050817;28;20444;-77
2023/05/11 04:55:08;;;;;;;;;;;;;;;11.90;58.62;100112.31;5051143;28;19923;-76
2023/05/11 04:57:34;;;;;;;;;;;;;;;11.89;58.96;100111.50;5050967;28;19908;-76
2023/05/11 04:59:59;;;;;;;;;;;;;;;11.91;57.80;100114.78;5051569;28;20305;-76
2023/05/11 05:02:24;;;;;;;;;;;;;;;11.94;58.74;100113.63;5054786;28;19908;-76
2023/05/11 05:04:50;;;;;;;;;;;;;;;11.93;58.27;100115.44;5054556;28;19947;-76
2023/05/11 05:07:15;;;;;;;;;;;;;;;11.88;58.26;100112.47;5054533;28;20307;-76
2023/05/11 05:09:40;;;;;;;;;;;;;;;11.88;57.66;100125.69;5054522;28;19915;-76
2023/05/11 05:12:06;;;;;;;;;;;;;;;11.78;58.25;100123.25;5054461;28;19918;-76
2023/05/11 05:14:31;;;;;;;;;;;;;;;11.82;57.40;100107.84;5054375;28;19920;-76
2023/05/11 05:16:56;;;;;;;;;;;;;;;11.85;58.05;100115.44;5054495;28;19909;-76
2023/05/11 05:19:21;;;;;;;;;;;;;;;11.88;57.47;100116.94;5054406;28;20075;-77
2023/05/11 05:21:47;;;;;;;;;;;;;;;11.93;58.47;100109.31;5054059;28;19912;-77
2023/05/11 05:24:12;;;;;;;;;;;;;;;11.99;58.14;100112.09;5051664;28;19964;-76
2023/05/11 05:26:37;;;;;;;;;;;;;;;12.01;58.47;100117.22;5045353;28;19909;-76
2023/05/11 05:29:03;;;;;;;;;;;;;;;12.02;58.54;100113.59;5041649;28;20366;-76
2023/05/11 05:31:29;;;;;;;;;;;;;;;12.02;58.98;100117.06;5053769;28;19915;-77
2023/05/11 05:33:54;;;;;;;;;;;;;;;12.02;59.40;100118.88;5042698;28;19917;-76
2023/05/11 05:36:19;;;;;;;;;;;;;;;12.05;59.97;100114.06;5033153;28;19909;-75
2023/05/11 05:38:44;;;;;;;;;;;;;;;12.12;57.44;100111.53;5038774;28;20011;-76
2023/05/11 05:41:10;;;;;;;;;;;;;;;12.13;58.71;100118.47;5053962;28;20373;-76
2023/05/11 05:43:35;;;;;;;;;;;;;;;12.21;58.52;100123.72;5046023;28;19915;-76
2023/05/11 05:46:00;;;;;;;;;;;;;;;12.33;57.98;100118.84;5033640;28;19939;-76
2023/05/11 05:48:25;;;;;;;;;;;;;;;12.39;58.78;100121.63;5032161;28;19908;-76
2023/05/11 05:50:51;;;;;;;;;;;;;;;12.47;57.47;100134.00;5033456;28;19912;-76
2023/05/11 05:53:16;;;;;;;;;;;;;;;12.50;58.41;100125.69;5033375;28;20442;-76
2023/05/11 05:55:41;;;;;;;;;;;;;;;12.61;58.10;100132.41;5037085;28;19970;-77
2023/05/11 05:58:06;;;;;;;;;;;;;;;12.69;56.55;100127.91;5039891;28;19920;-77
2023/05/11 06:00:32;;;;;;;;;;;;;;;12.71;58.11;100130.38;5041868;28;19996;-76
2023/05/11 06:02:57;;;;;;;;;;;;;;;12.71;57.51;100133.03;5036565;28;20287;-77
2023/05/11 06:05:22;;;;;;;;;;;;;;;12.73;58.68;100133.66;5037187;28;19948;-77
2023/05/11 06:07:47;;;;;;;;;;;;;;;12.79;57.36;100129.47;5033129;28;20040;-77
2023/05/11 06:10:13;;;;;;;;;;;;;;;12.83;57.80;100133.44;5032721;28;19913;-76
2023/05/11 06:12:38;;;;;;;;;;;;;;;12.92;57.62;100132.34;5048829;28;20286;-76
2023/05/11 06:15:03;;;;;;;;;;;;;;;12.88;57.55;100134.53;5050406;28;19912;-75
2023/05/11 06:17:29;;;;;;;;;;;;;;;12.85;57.84;100136.72;5033831;28;19912;-77
2023/05/11 06:19:54;;;;;;;;;;;;;;;12.91;57.37;100136.84;5045381;28;20428;-76
2023/05/11 06:22:19;;;;;;;;;;;;;;;12.93;57.22;100134.84;5044968;28;19920;-77
2023/05/11 06:24:44;;;;;;;;;;;;;;;13.04;56.95;100142.34;5038815;28;19913;-78
2023/05/11 06:27:10;;;;;;;;;;;;;;;13.14;56.23;100135.97;5031044;28;19909;-79
2023/05/11 06:29:35;;;;;;;;;;;;;;;13.20;56.34;100137.94;5032748;28;20386;-77
2023/05/11 06:32:00;;;;;;;;;;;;;;;13.32;56.81;100139.97;5031561;28;20008;-76
2023/05/11 06:34:25;;;;;;;;;;;;;;;13.33;56.32;100132.84;5032668;28;19913;-77
2023/05/11 06:36:51;;;;;;;;;;;;;;;13.45;56.09;100149.16;5033590;28;19909;-77
2023/05/11 06:39:16;;;;;;;;;;;;;;;13.51;55.30;100143.13;5032431;28;19916;-77
2023/05/11 06:41:41;;;;;;;;;;;;;;;13.60;55.57;100142.84;5033761;28;20445;-77
2023/05/11 06:44:07;;;;;;;;;;;;;;;13.75;54.79;100142.03;5052109;28;19908;-77
2023/05/11 06:46:32;;;;;;;;;;;;;;;13.84;54.98;100141.75;5052161;28;20321;-76
2023/05/11 06:48:57;;;;;;;;;;;;;;;13.94;54.33;100144.09;5064437;28;19944;-77
2023/05/11 06:51:23;;;;;;;;;;;;;;;14.01;54.26;100142.34;5052098;28;19912;-76
2023/05/11 06:53:48;;;;;;;;;;;;;;;14.19;53.73;100136.66;5051913;28;19913;-77
2023/05/11 06:56:13;;;;;;;;;;;;;;;14.19;53.68;100136.66;5051188;28;19908;-76
2023/05/11 06:58:39;;;;;;;;;;;;;;;14.22;53.38;100134.47;5050569;28;19912;-77
2023/05/11 07:01:06;;;;;;;;;;;;;;;14.26;53.53;100134.91;5051980;28;19916;-76
2023/05/11 07:03:32;;;;;;;;;;;;;;;14.32;53.36;100132.34;5051015;28;20257;-76
2023/05/11 07:05:57;;;;;;;;;;;;;;;14.29;53.23;100138.03;5039942;28;19920;-76
2023/05/11 07:08:22;;;;;;;;;;;;;;;14.32;53.51;100132.34;5046445;28;19920;-77
2023/05/11 07:10:47;;;;;;;;;;;;;;;14.29;53.28;100138.03;5042883;28;19908;-77
2023/05/11 07:13:13;;;;;;;;;;;;;;;14.35;53.48;100138.28;5038759;28;19912;-78
2023/05/11 07:15:38;;;;;;;;;;;;;;;14.37;52.92;100136.25;5050442;28;20393;-77
2023/05/11 07:18:03;;;;;;;;;;;;;;;14.37;52.76;100137.09;5050862;28;19917;-78
2023/05/11 07:20:29;;;;;;;;;;;;;;;14.34;52.86;100137.47;5048456;28;19920;-78
2023/05/11 07:22:58;;;;;;;;;;;;;;;14.37;52.99;100138.91;5049527;28;20360;-77
2023/05/11 07:25:23;;;;;;;;;;;;;;;14.42;52.82;100139.16;5051506;28;19909;-77
2023/05/11 07:27:49;;;;;;;;;;;;;;;14.47;52.94;100134.97;5066240;28;20286;-77
2023/05/11 07:30:14;;;;;;;;;;;;;;;14.51;53.03;100133.59;5044726;28;20028;-77
2023/05/11 07:32:40;;;;;;;;;;;;;;;14.59;52.64;100130.81;5040182;28;21088;-76
2023/05/11 07:35:06;;;;;;;;;;;;;;;14.54;52.51;100124.41;5047568;28;20011;-76
2023/05/11 07:37:32;;;;;;;;;;;;;;;14.59;52.55;100148.56;5048015;28;19956;-77
2023/05/11 07:39:57;;;;;;;;;;;;;;;14.72;52.49;100132.75;5046951;28;19912;-76
2023/05/11 07:42:22;;;;;;;;;;;;;;;14.80;52.21;100129.16;5036825;28;20301;-76
2023/05/11 07:44:47;;;;;;;;;;;;;;;14.85;51.98;100121.41;5047921;28;20772;-76
2023/05/11 07:47:13;;;;;;;;;;;;;;;14.97;51.59;100114.59;5047014;28;19921;-76
2023/05/11 07:49:38;;;;;;;;;;;;;;;15.08;51.41;100118.56;5031377;28;19909;-76
2023/05/11 07:52:03;;;;;;;;;;;;;;;15.17;50.95;100117.41;5031089;28;19916;-76
2023/05/11 07:54:28;;;;;;;;;;;;;;;15.22;51.18;100115.00;5030596;28;19927;-76
2023/05/11 07:56:54;;;;;;;;;;;;;;;15.27;50.76;100120.53;5048276;28;20386;-77
2023/05/11 07:59:19;;;;;;;;;;;;;;;15.30;50.63;100119.34;5049938;28;19992;-76
2023/05/11 08:01:45;;;;;;;;;;;;;;;15.34;50.71;100118.75;5034805;28;20382;-76
2023/05/11 08:04:10;;;;;;;;;;;;;;;15.41;49.45;100122.28;5033183;28;19908;-77
2023/05/11 08:06:35;;;;;;;;;;;;;;;15.45;49.07;100120.88;5035468;28;19956;-78
2023/05/11 08:09:00;;;;;;;;;;;;;;;15.54;49.04;100113.53;5032309;28;19975;-78
2023/05/11 08:11:26;;;;;;;;;;;;;;;15.62;49.24;100113.44;5031049;28;20416;-78
2023/05/11 08:13:51;;;;;;;;;;;;;;;15.70;50.40;100115.94;5031053;28;19909;-77
2023/05/11 08:16:17;;;;;;;;;;;;;;;15.69;48.53;100113.47;5036775;28;19919;-77
2023/05/11 08:18:42;;;;;;;;;;;;;;;15.80;48.33;100099.59;5039638;28;20312;-77
2023/05/11 08:21:07;;;;;;;;;;;;;;;15.97;47.55;100100.09;5050350;28;19969;-77
2023/05/11 08:23:32;;;;;;;;;;;;;;;16.12;47.65;100101.56;5050308;28;19912;-78
2023/05/11 08:25:58;;;;;;;;;;;;;;;16.44;48.94;100105.38;5032524;28;19905;-77
2023/05/11 08:28:23;;;;;;;;;;;;;;;16.64;47.74;100101.91;5035183;28;19917;-77
2023/05/11 08:30:55;;;;;;;;;;;;;;;16.80;47.53;100098.88;5034409;28;19928;-78
2023/05/11 08:33:21;;;;;;;;;;;;;;;16.84;46.19;100098.25;5030868;28;20386;-77
2023/05/11 08:35:46;;;;;;;;;;;;;;;16.93;46.98;100103.38;5039917;28;19936;-77
2023/05/11 08:38:12;;;;;;;;;;;;;;;16.99;46.06;100083.88;5050358;28;19912;-76
2023/05/11 08:40:42;;;;;;;;;;;;;;;17.02;46.80;100091.47;5040588;28;20383;-77
2023/05/11 08:43:08;;;;;;;;;;;;;;;17.09;46.36;100090.47;5042507;28;19995;-76
2023/05/11 08:45:35;;;;;;;;;;;;;;;17.24;45.39;100084.91;5039598;28;19988;-78
2023/05/11 08:48:02;;;;;;;;;;;;;;;17.42;44.55;100077.06;5045015;28;19917;-77
2023/05/11 08:50:27;;;;;;;;;;;;;;;17.66;45.68;100082.75;5049418;28;19920;-76
2023/05/11 08:52:52;;;;;;;;;;;;;;;17.77;45.53;100085.59;5053737;28;20316;-77
2023/05/11 08:55:17;;;;;;;;;;;;;;;17.82;44.16;100079.63;5054271;28;19948;-75
2023/05/11 08:57:45;;;;;;;;;;;;;;;17.83;42.33;100075.09;5054344;28;20385;-77
2023/05/11 09:00:11;;;;;;;;;;;;;;;17.97;43.14;100058.00;5043812;28;19917;-77
2023/05/11 09:02:36;;;;;;;;;;;;;;;18.19;44.25;100061.19;5052244;28;19916;-76
2023/05/11 09:05:03;;;;;;;;;;;;;;;18.10;43.87;100071.31;5053720;28;19908;-77
2023/05/11 09:07:28;;;;;;;;;;;;;;;17.91;43.15;100066.88;5047805;28;19920;-77
2023/05/11 09:09:53;;;;;;;;;;;;;;;17.71;44.03;100067.75;5033914;28;19916;-77
2023/05/11 09:12:19;;;;;;;;;;;;;;;17.47;43.05;100060.44;5032986;28;19913;-77
2023/05/11 09:14:45;;;;;;;;;;;;;;;17.50;44.67;100070.69;5044426;28;19916;-77
2023/05/11 09:17:11;;;;;;;;;;;;;;;17.61;43.47;100061.19;5043560;28;19920;-78
2023/05/11 09:19:37;;;;;;;;;;;;;;;17.87;44.31;100050.47;5049204;28;19913;-76
2023/05/11 09:22:04;;;;;;;;;;;;;;;17.94;43.91;100061.13;5037111;28;20421;-77
2023/05/11 09:24:29;;;;;;;;;;;;;;;18.29;43.49;100067.69;5039163;28;20058;-77
2023/05/11 09:27:07;;;;;;;;;;;;;;;18.65;40.72;100066.28;5052068;28;19962;-77
2023/05/11 09:29:33;;;;;;;;;;;;;;;19.07;42.11;100063.84;5047523;28;19963;-76
2023/05/11 09:31:58;;;;;;;;;;;;;;;19.39;39.54;100049.31;5051989;28;19949;-77
2023/05/11 09:34:23;;;;;;;;;;;;;;;19.65;40.33;100043.69;5053528;28;20351;-77
2023/05/11 09:36:50;;;;;;;;;;;;;;;19.97;39.03;100035.44;5051249;28;19928;-77
2023/05/11 09:39:18;;;;;;;;;;;;;;;19.96;39.79;100039.97;5045949;28;20449;-78
2023/05/11 09:41:44;;;;;;;;;;;;;;;19.62;39.63;100038.78;5044303;28;19920;-78
2023/05/11 09:44:15;;;;;;;;;;;;;;;19.31;40.54;100034.34;5047936;28;20000;-77
2023/05/11 09:46:42;;;;;;;;;;;;;;;19.56;40.37;100038.84;5041340;28;19935;-77
2023/05/11 09:49:07;;;;;;;;;;;;;;;20.02;39.16;100032.91;5043164;28;19983;-77
2023/05/11 09:51:34;;;;;;;;;;;;;;;20.42;37.80;100029.69;5049607;28;20397;-77
2023/05/11 09:54:00;;;;;;;;;;;;;;;20.54;37.91;100019.78;5052260;28;19920;-76
2023/05/11 09:56:48;;;;;;;;;;;;;;;20.32;39.03;100027.53;5052171;28;20460;-77
2023/05/11 09:59:14;;;;;;;;;;;;;;;19.94;37.45;100022.50;5043776;28;20286;-76
2023/05/11 10:01:39;;;;;;;;;;;;;;;19.65;39.71;100021.44;5052574;28;19924;-75
2023/05/11 10:04:07;;;;;;;;;;;;;;;19.36;39.92;100018.47;5050209;28;19913;-77
2023/05/11 10:06:42;;;;;;;;;;;;;;;19.12;40.34;100021.16;5052489;28;19944;-77
2023/05/11 10:09:08;;;;;;;;;;;;;;;18.87;39.81;100015.88;5044317;28;19974;-75
2023/05/11 10:11:34;;;;;;;;;;;;;;;18.77;41.03;100020.91;5049467;28;19935;-76
2023/05/11 10:13:59;;;;;;;;;;;;;;;18.72;40.71;100014.34;5043601;28;20401;-77
2023/05/11 10:16:25;;;;;;;;;;;;;;;18.71;41.57;100006.53;5043395;28;19998;-77
2023/05/11 10:18:51;;;;;;;;;;;;;;;19.04;38.80;100012.41;5047076;28;19920;-76
2023/05/11 10:21:17;;;;;;;;;;;;;;;19.28;41.07;100001.84;5039522;28;19916;-76
2023/05/11 10:23:42;;;;;;;;;;;;;;;19.19;41.44;99995.97;5038402;28;19916;-76
2023/05/11 10:26:08;;;;;;;;;;;;;;;19.07;40.23;99999.59;5044735;28;19912;-77
2023/05/11 10:28:33;;;;;;;;;;;;;;;19.31;41.36;99998.72;5037668;28;19970;-77
2023/05/11 10:30:59;;;;;;;;;;;;;;;19.61;40.23;99991.59;5037635;28;19952;-77
2023/05/11 10:33:25;;;;;;;;;;;;;;;20.07;39.38;99987.50;5046974;28;20306;-78
2023/05/11 10:35:50;;;;;;;;;;;;;;;20.03;36.96;99990.81;5043880;28;19970;-77
2023/05/11 10:38:16;;;;;;;;;;;;;;;19.84;38.74;99987.38;5045225;28;19952;-75
2023/05/11 10:40:42;;;;;;;;;;;;;;;19.88;39.13;99993.94;5035260;28;19967;-74
2023/05/11 10:43:10;;;;;;;;;;;;;;;19.89;38.31;99988.34;5045015;28;19966;-74
2023/05/11 10:45:48;;;;;;;;;;;;;;;19.70;38.53;99984.06;5049295;28;19919;-77
2023/05/11 10:48:35;;;;;;;;;;;;;;;19.52;39.61;99974.22;5049998;28;20278;-77
2023/05/11 10:51:00;;;;;;;;;;;;;;;19.56;40.48;99975.41;5042628;28;19920;-77
2023/05/11 10:53:32;;;;;;;;;;;;;;;19.41;38.95;99964.22;5044586;28;20302;-76
2023/05/11 10:55:57;;;;;;;;;;;;;;;19.29;38.65;99966.00;5044652;28;19971;-75
2023/05/11 10:58:41;;;;;;;;;;;;;;;19.17;38.96;99965.94;5040624;28;19944;-76
2023/05/11 11:01:15;;;;;;;;;;;;;;;19.17;40.11;99970.47;5045309;28;19939;-75
2023/05/11 11:03:40;;;;;;;;;;;;;;;19.16;39.76;99969.66;5041067;28;19916;-76
2023/05/11 11:06:20;;;;;;;;;;;;;;;19.15;40.26;99970.69;5039108;28;19913;-78
2023/05/11 11:08:58;;;;;;;;;;;;;;;19.06;39.60;99974.72;5040859;28;19963;-75
2023/05/11 11:11:49;;;;;;;;;;;;;;;19.00;39.53;99967.56;5047783;28;19919;-77
2023/05/11 11:14:16;;;;;;;;;;;;;;;18.93;39.56;99964.97;5045318;28;19951;-77
2023/05/11 11:17:00;;;;;;;;;;;;;;;18.98;39.11;99962.44;5047097;28;20335;-77
2023/05/11 11:19:29;;;;;;;;;;;;;;;19.02;39.11;99954.78;5041353;28;19917;-76
2023/05/11 11:22:04;;;;;;;;;;;;;;;18.89;38.48;99969.13;5047573;28;20042;-77
2023/05/11 11:24:35;;;;;;;;;;;;;;;18.86;39.52;99964.22;5063677;28;19955;-76
2023/05/11 11:27:01;;;;;;;;;;;;;;;18.86;39.72;99961.53;5047814;28;19966;-76
2023/05/11 11:29:27;;;;;;;;;;;;;;;18.83;39.87;99959.31;5049368;28;19913;-76
2023/05/11 11:31:52;;;;;;;;;;;;;;;18.84;39.42;99952.09;5043961;28;19912;-77
2023/05/11 11:34:23;;;;;;;;;;;;;;;18.87;40.56;99951.66;5046787;28;20367;-75
2023/05/11 11:36:54;;;;;;;;;;;;;;;18.80;40.18;99948.22;5051217;28;20483;-75
2023/05/11 11:39:26;;;;;;;;;;;;;;;18.77;39.58;99946.00;5051025;28;20385;-77
2023/05/11 11:42:02;;;;;;;;;;;;;;;18.77;39.38;99948.66;5051416;28;19908;-76
2023/05/11 11:44:29;;;;;;;;;;;;;;;18.73;40.33;99948.28;5050317;28;20384;-75
2023/05/11 11:47:13;;;;;;;;;;;;;;;18.96;39.47;99943.09;5046520;28;19978;-75
2023/05/11 11:49:39;;;;;;;;;;;;;;;19.82;38.42;99934.03;5050693;28;19912;-75
2023/05/11 11:52:05;;;;;;;;;;;;;;;20.34;37.25;99928.91;5050989;28;19916;-76
2023/05/11 11:54:41;;;;;;;;;;;;;;;20.58;37.62;99938.59;5031371;28;19924;-76
2023/05/11 11:57:25;;;;;;;;;;;;;;;21.21;35.62;99932.47;5036905;28;19913;-76
2023/05/11 11:59:51;;;;;;;;;;;;;;;21.77;34.66;99936.28;5050479;28;20038;-76
2023/05/11 12:02:17;;;;;;;;;;;;;;;21.71;34.25;99920.31;5050077;28;19909;-76
2023/05/11 12:05:03;;;;;;;;;;;;;;;21.43;33.45;99916.53;5049060;28;19919;-76
2023/05/11 12:07:33;;;;;;;;;;;;;;;21.04;35.32;99917.34;5038335;28;19912;-76
2023/05/11 12:10:01;;;;;;;;;;;;;;;20.78;36.46;99913.28;5053730;28;19909;-77
2023/05/11 12:12:26;;;;;;;;;;;;;;;20.61;36.21;99910.50;5055064;28;20303;-76
2023/05/11 12:14:51;;;;;;;;;;;;;;;20.53;37.47;99897.44;5055183;28;19913;-75
2023/05/11 12:17:24;;;;;;;;;;;;;;;21.11;37.25;99908.09;5055143;28;19909;-75
2023/05/11 12:19:49;;;;;;;;;;;;;;;21.32;36.22;99903.16;5035278;28;19913;-76
2023/05/11 12:22:20;;;;;;;;;;;;;;;21.24;34.50;99904.34;5035096;28;19909;-76
2023/05/11 12:24:45;;;;;;;;;;;;;;;21.02;34.21;99903.34;5035162;28;19995;-75
2023/05/11 12:27:11;;;;;;;;;;;;;;;20.86;35.87;99899.53;5041181;28;19944;-76
2023/05/11 12:29:36;;;;;;;;;;;;;;;20.79;36.69;99907.69;5054857;28;19948;-76
2023/05/11 12:32:02;;;;;;;;;;;;;;;20.68;35.82;99900.47;5054866;28;19914;-75
2023/05/11 12:34:27;;;;;;;;;;;;;;;20.49;36.50;99889.03;5054826;28;19912;-76
2023/05/11 12:36:53;;;;;;;;;;;;;;;20.41;37.43;99884.03;5053550;28;20376;-76